M I D A S
Marine Information and Data Acquisition System
Tripno 1183 of the Zeeleeuw from 2006-12-22 08:53:50 to 2006-12-22 12:16:46
Back to CruiseResearch ActivitiesStationsMapUnderway DataData graphs

EquipmentUnitsComment
TimeDGPSUTC
LatitudeDGPSDM.mWGS84
LongitudeDGPSDM.mWGS84
TemperatureSBE03/SBE38deg celciusITS90
ConductivitySBE21S/mITS90
SalinitySBE21 Practical Salinity Units
ChlorophylAChelsea fluorimeterg/lCalibrated in Aceton
Missing or incorrect values are displayed as -999
Sea surface data collected by the RV Zeeleeuw from 2006-12-22 07:35:38 to 2006-12-22 12:28:48
Time Latitude Longitude Temperature Conductivity Salinity ChlorophylA
2006-12-22 07:36:44 51°13.611 2°56.036 16.5928 0.064988 0.381759 -2.871232
2006-12-22 07:37:43 51°13.648 2°55.924 16.6006 0.064988 0.381759 -2.871232
2006-12-22 07:38:43 51°13.707 2°55.802 16.6003 0.064988 0.381751 -2.871232
2006-12-22 07:39:43 51°13.729 2°55.702 16.6134 0.064988 0.381751 -2.871232
2006-12-22 07:40:43 51°13.735 2°55.707 16.6123 0.064988 0.381767 -2.871232
2006-12-22 07:41:43 51°13.747 2°55.691 16.6366 0.064988 0.381743 -2.871232
2006-12-22 07:42:43 51°13.845 2°55.625 16.6406 0.064988 0.381734 -2.871232
2006-12-22 07:43:43 51°13.979 2°55.527 16.6342 0.064988 0.381726 -2.871232
2006-12-22 07:44:43 51°14.105 2°55.435 16.635 0.064988 0.381734 -2.871232
2006-12-22 07:45:44 51°14.229 2°55.316 16.6356 0.064988 0.381734 -2.871232
2006-12-22 07:46:43 51°14.326 2°55.134 16.5846 0.064988 0.38171 -2.871232
2006-12-22 07:47:43 51°14.411 2°54.874 16.5554 0.064988 0.38171 -2.871232
2006-12-22 07:48:43 51°14.435 2°54.536 16.3335 0.064988 0.381702 -2.871232
2006-12-22 07:49:43 51°14.349 2°54.2 16.2597 0.064988 0.381693 -2.871232
2006-12-22 07:50:43 51°14.249 2°53.865 16.4184 0.064988 0.381685 -2.871232
2006-12-22 07:51:43 51°14.155 2°53.516 16.3437 0.064988 0.381677 -2.871232
2006-12-22 07:52:43 51°14.061 2°53.159 16.4283 0.064988 0.381685 -2.871232
2006-12-22 07:53:43 51°13.959 2°52.8 16.3905 0.064988 0.381669 -2.871232
2006-12-22 07:54:43 51°13.854 2°52.44 16.3716 0.064988 0.381661 -2.871232
2006-12-22 07:55:43 51°13.745 2°52.083 16.3247 0.064988 0.381661 -2.871232
2006-12-22 07:56:43 51°13.634 2°51.728 16.3828 0.064988 0.381644 -2.871232
2006-12-22 07:57:43 51°13.516 2°51.378 16.3809 0.064988 0.381644 -2.871232
2006-12-22 07:58:43 51°13.388 2°51.033 16.3575 0.064988 0.381644 -2.871232
2006-12-22 07:59:43 51°13.259 2°50.687 16.3923 0.064988 0.381636 -2.871232
2006-12-22 08:00:43 51°13.125 2°50.346 16.3904 0.064988 0.381636 -2.871232
2006-12-22 08:01:43 51°12.992 2°50.008 16.3849 0.064988 0.381636 -2.871232
2006-12-22 08:02:43 51°12.859 2°49.668 16.3474 0.064988 0.381628 -2.871232
2006-12-22 08:03:43 51°12.722 2°49.327 16.3713 0.064988 0.381628 -2.871232
2006-12-22 08:04:43 51°12.586 2°48.977 16.3575 0.064988 0.381628 -2.871232
2006-12-22 08:05:43 51°12.449 2°48.629 16.3817 0.064988 0.381628 -2.871232
2006-12-22 08:06:43 51°12.314 2°48.28 16.4325 0.064988 0.381619 -2.871232
2006-12-22 08:07:43 51°12.177 2°47.934 16.4032 0.064988 0.381611 -2.871232
2006-12-22 08:08:43 51°12.045 2°47.585 16.4507 0.064988 0.381611 -2.871232
2006-12-22 08:09:43 51°11.911 2°47.236 16.4139 0.064988 0.381603 -2.871232
2006-12-22 08:10:43 51°11.78 2°46.889 16.4496 0.064988 0.381595 -2.871232
2006-12-22 08:11:43 51°11.649 2°46.545 16.4351 0.06509 0.38222 -2.871232
2006-12-22 08:12:43 51°11.519 2°46.202 16.4723 0.064988 0.381587 -2.871232
2006-12-22 08:13:43 51°11.403 2°45.852 16.4715 0.064988 0.381587 -2.871232
2006-12-22 08:14:43 51°11.305 2°45.485 16.4594 0.064988 0.381578 -2.871232
2006-12-22 08:15:43 51°11.218 2°45.112 16.4881 0.064988 0.381578 -2.871232
2006-12-22 08:16:43 51°11.144 2°44.73 16.4863 0.064988 0.38157 -2.871232
2006-12-22 08:17:43 51°11.079 2°44.343 16.4913 0.064988 0.38157 -2.871232
2006-12-22 08:18:43 51°11.013 2°43.956 16.51 0.064988 0.38157 -2.871232
2006-12-22 08:19:43 51°10.951 2°43.566 16.5044 0.064988 0.381554 -2.871232
2006-12-22 08:20:43 51°10.889 2°43.177 16.5145 0.06509 0.382179 -2.871232
2006-12-22 08:21:43 51°10.826 2°42.788 16.4923 0.064988 0.381554 -2.871232
2006-12-22 08:22:43 51°10.765 2°42.397 16.5321 0.064988 0.381546 -2.871232
2006-12-22 08:23:43 51°10.704 2°42.007 16.5332 0.06509 0.38217 -2.871232
2006-12-22 08:24:43 51°10.643 2°41.618 16.5495 0.064988 0.381537 -2.871232
2006-12-22 08:25:43 51°10.581 2°41.229 16.5424 0.06509 0.382162 -2.871232
2006-12-22 08:26:43 51°10.523 2°40.838 16.581 0.064988 0.381529 -2.871232
2006-12-22 08:27:43 51°10.464 2°40.446 16.5711 0.064988 0.381521 -2.871232
2006-12-22 08:28:43 51°10.405 2°40.054 16.5981 0.064988 0.381513 -2.871232
2006-12-22 08:29:43 51°10.35 2°39.66 16.6056 0.06509 0.382138 -2.871232
2006-12-22 08:30:43 51°10.294 2°39.265 16.6195 0.06509 0.382129 -2.871232
2006-12-22 08:31:43 51°10.236 2°38.869 16.6243 0.06509 0.382129 -2.871232
2006-12-22 08:32:43 51°10.18 2°38.473 16.6369 0.06509 0.382121 -2.871232
2006-12-22 08:33:43 51°10.125 2°38.076 16.6385 0.06509 0.382113 -2.871232
2006-12-22 08:34:43 51°10.078 2°37.678 16.6599 0.06509 0.382105 -2.871232
2006-12-22 08:35:43 51°10.032 2°37.28 16.6687 0.06509 0.382105 -2.871232
2006-12-22 08:36:43 51°9.984 2°36.878 16.67 0.06509 0.382105 -2.871232
2006-12-22 08:37:43 51°9.944 2°36.475 16.6756 0.06509 0.382096 -2.871232
2006-12-22 08:38:43 51°9.938 2°36.076 16.6389 0.064988 0.381472 -2.871232
2006-12-22 08:39:43 51°10.028 2°35.717 16.743 0.064988 0.381455 -2.871232
2006-12-22 08:40:43 51°10.191 2°35.48 16.6819 0.06509 0.382088 -2.871232
2006-12-22 08:41:43 51°10.401 2°35.475 16.8229 0.06509 0.38208 -2.871232
2006-12-22 08:42:43 51°10.577 2°35.645 16.7775 0.06509 0.382072 -2.871232
2006-12-22 08:43:43 51°10.746 2°35.838 16.7434 0.06509 0.38208 -2.871232
2006-12-22 08:44:43 51°10.915 2°36.034 16.7476 0.06509 0.382064 -2.871232
2006-12-22 08:45:43 51°11.083 2°36.234 16.7428 0.064988 0.381431 -2.871232
2006-12-22 08:46:43 51°11.25 2°36.434 16.7577 0.06509 0.382055 -2.871232
2006-12-22 08:47:43 51°11.423 2°36.623 16.7622 0.06509 0.382047 -2.871232
2006-12-22 08:48:43 51°11.595 2°36.813 16.7516 0.06509 0.382047 -2.871232
2006-12-22 08:49:43 51°11.768 2°37.001 16.7233 0.06509 0.382039 -2.871232
2006-12-22 08:50:43 51°11.946 2°37.177 16.7619 0.06509 0.382031 -2.871232
2006-12-22 08:51:43 51°12.127 2°37.342 16.7837 0.06509 0.382023 -2.871232
2006-12-22 08:52:43 51°12.309 2°37.508 16.7997 0.06509 0.382014 -2.871232
2006-12-22 08:53:43 51°12.491 2°37.671 16.7907 0.06509 0.382006 -2.871232
2006-12-22 08:54:43 51°12.674 2°37.835 16.8108 0.06509 0.381998 -2.871232
2006-12-22 08:55:43 51°12.857 2°37.998 16.8432 0.06509 0.38199 -2.871232
2006-12-22 08:56:43 51°13.041 2°38.16 16.8592 0.064988 0.381357 -2.871232
2006-12-22 08:57:43 51°13.227 2°38.321 16.8536 0.06509 0.381973 -2.871232
2006-12-22 08:58:43 51°13.411 2°38.483 16.8594 0.06509 0.381965 -2.871232
2006-12-22 08:59:43 51°13.602 2°38.63 16.8664 0.06509 0.381965 -2.871232
2006-12-22 09:00:43 51°13.795 2°38.771 16.8883 0.06509 0.381957 -2.871232
2006-12-22 09:01:43 51°14.006 2°38.8 17.0366 0.06509 0.381957 -2.871232
2006-12-22 09:02:43 51°14.19 2°38.607 17.0721 0.06509 0.38194 -2.871232
2006-12-22 09:03:43 51°14.249 2°38.246 17.1605 0.06509 0.381949 -2.871232
2006-12-22 09:04:43 51°14.168 2°37.865 16.9691 0.06509 0.381916 -2.871232
2006-12-22 09:05:43 51°14.074 2°37.483 16.9869 0.06509 0.381916 -2.871232
2006-12-22 09:06:43 51°13.985 2°37.1 17.0031 0.06509 0.381916 -2.871232
2006-12-22 09:07:43 51°13.884 2°36.723 17.0017 0.06509 0.381916 -2.871232
2006-12-22 09:08:43 51°13.784 2°36.346 17.0261 0.06509 0.381899 -2.871232
2006-12-22 09:09:43 51°13.672 2°35.976 17.061 0.06509 0.381899 -2.871232
2006-12-22 09:10:43 51°13.558 2°35.61 17.071 0.06509 0.381891 -2.871232
2006-12-22 09:11:43 51°13.444 2°35.242 17.0827 0.06509 0.381891 -2.871232
2006-12-22 09:12:43 51°13.33 2°34.876 17.0679 0.06509 0.381883 -2.871232
2006-12-22 09:13:43 51°13.217 2°34.515 17.1162 0.06509 0.381875 -2.871232
2006-12-22 09:14:43 51°13.105 2°34.154 17.1279 0.06509 0.381883 -2.871232
2006-12-22 09:15:43 51°12.995 2°33.793 17.1538 0.06509 0.381875 -2.871232
2006-12-22 09:16:43 51°12.888 2°33.433 17.1693 0.06509 0.381875 -2.871232
2006-12-22 09:17:43 51°12.779 2°33.073 17.2068 0.06509 0.381867 -2.871232
2006-12-22 09:18:43 51°12.669 2°32.713 17.1923 0.06509 0.381858 -2.871232
2006-12-22 09:19:43 51°12.559 2°32.348 17.2259 0.06509 0.381858 -2.871232
2006-12-22 09:20:43 51°12.447 2°31.979 17.2412 0.06509 0.381858 -2.871232
2006-12-22 09:21:43 51°12.335 2°31.608 17.2535 0.06509 0.38185 -2.871232
2006-12-22 09:22:43 51°12.221 2°31.236 17.2784 0.06509 0.38185 -2.871232
2006-12-22 09:23:43 51°12.106 2°30.862 17.2826 0.06509 0.38185 -2.871232
2006-12-22 09:24:43 51°11.991 2°30.489 17.3265 0.06509 0.381842 -2.871232
2006-12-22 09:25:43 51°11.876 2°30.113 17.3056 0.06509 0.381842 -2.871232
2006-12-22 09:26:43 51°11.761 2°29.738 17.3256 0.06509 0.381842 -2.871232
2006-12-22 09:27:43 51°11.654 2°29.357 17.343 0.06509 0.381834 -2.871232
2006-12-22 09:28:43 51°11.553 2°28.972 17.362 0.06509 0.381834 -2.871232
2006-12-22 09:29:43 51°11.459 2°28.584 17.4066 0.06509 0.381826 -2.871232
2006-12-22 09:30:43 51°11.364 2°28.196 17.4398 0.06509 0.381817 -2.871232
2006-12-22 09:31:43 51°11.274 2°27.806 17.4215 0.06509 0.381817 -2.871232
2006-12-22 09:32:43 51°11.27 2°27.407 17.4353 0.06509 0.381826 -2.871232
2006-12-22 09:33:43 51°11.432 2°27.147 17.5004 0.06509 0.381809 -2.871232
2006-12-22 09:34:43 51°11.652 2°27.151 17.5342 0.06509 0.381801 -2.871232
2006-12-22 09:35:43 51°11.865 2°27.199 17.4503 0.06509 0.381817 -2.871232
2006-12-22 09:36:43 51°12.081 2°27.198 17.5329 0.06509 0.381801 -2.871232
2006-12-22 09:37:43 51°12.303 2°27.236 17.5093 0.06509 0.381793 -2.871232
2006-12-22 09:38:43 51°12.498 2°27.393 17.5105 0.06509 0.381793 -2.871232
2006-12-22 09:39:43 51°12.685 2°27.569 17.5221 0.06509 0.381785 -2.871232
2006-12-22 09:40:43 51°12.871 2°27.748 17.5043 0.06509 0.381776 -2.871232
2006-12-22 09:41:43 51°13.049 2°27.943 17.5263 0.06509 0.381768 -2.871232
2006-12-22 09:42:43 51°13.224 2°28.142 17.5378 0.06509 0.38176 -2.871232
2006-12-22 09:43:43 51°13.396 2°28.348 17.5494 0.06509 0.381752 -2.871232
2006-12-22 09:44:43 51°13.568 2°28.554 17.5389 0.06509 0.381744 -2.871232
2006-12-22 09:45:43 51°13.742 2°28.758 17.5662 0.06509 0.381735 -2.871232
2006-12-22 09:46:43 51°13.916 2°28.963 17.5224 0.065193 0.382351 -2.871232
2006-12-22 09:47:43 51°14.09 2°29.166 17.5682 0.06509 0.381719 -2.871232
2006-12-22 09:48:43 51°14.263 2°29.372 17.5737 0.06509 0.381711 -2.871232
2006-12-22 09:49:43 51°14.436 2°29.577 17.6035 0.06509 0.381703 -2.871232
2006-12-22 09:50:43 51°14.609 2°29.781 17.6243 0.06509 0.381694 -2.871232
2006-12-22 09:51:43 51°14.781 2°29.984 17.631 0.06509 0.381678 -2.871232
2006-12-22 09:52:43 51°14.955 2°30.185 17.6625 0.06509 0.38167 -2.871232
2006-12-22 09:53:43 51°15.128 2°30.382 17.6881 0.06509 0.38167 -2.871232
2006-12-22 09:54:43 51°15.3 2°30.58 17.7093 0.06509 0.381653 -2.871232
2006-12-22 09:55:43 51°15.473 2°30.777 17.699 0.06509 0.381653 -2.871232
2006-12-22 09:56:43 51°15.645 2°30.974 17.7296 0.06509 0.381645 -2.871232
2006-12-22 09:57:43 51°15.818 2°31.173 17.7438 0.06509 0.381629 -2.871232
2006-12-22 09:58:43 51°15.992 2°31.371 17.7258 0.06509 0.381621 -2.871232
2006-12-22 09:59:43 51°16.166 2°31.57 17.7609 0.06509 0.381612 -2.871232
2006-12-22 10:00:43 51°16.338 2°31.771 17.7713 0.06509 0.381604 -2.871232
2006-12-22 10:01:43 51°16.508 2°31.975 17.8174 0.06509 0.381596 -2.871232
2006-12-22 10:02:43 51°16.678 2°32.177 17.8287 0.06509 0.381596 -2.871232
2006-12-22 10:03:43 51°16.849 2°32.38 17.8326 0.065193 0.382204 -2.871232
2006-12-22 10:04:43 51°17.018 2°32.585 17.8579 0.06509 0.381571 -2.871232
2006-12-22 10:05:43 51°17.186 2°32.79 17.8806 0.06509 0.381563 -2.871232
2006-12-22 10:06:43 51°17.355 2°32.994 17.871 0.065193 0.382187 -2.871232
2006-12-22 10:07:43 51°17.524 2°33.194 17.8586 0.06509 0.381555 -2.871232
2006-12-22 10:08:43 51°17.69 2°33.395 17.7599 0.06509 0.381547 -2.871232
2006-12-22 10:09:43 51°17.858 2°33.595 17.7827 0.06509 0.381539 -2.871232
2006-12-22 10:10:43 51°18.028 2°33.796 17.758 0.06509 0.381531 -2.871232
2006-12-22 10:11:43 51°18.198 2°33.999 17.8024 0.065193 0.382146 -2.871232
2006-12-22 10:12:43 51°18.366 2°34.204 17.8178 0.06509 0.381514 -2.871232
2006-12-22 10:13:43 51°18.533 2°34.411 17.8274 0.065193 0.38213 -2.871232
2006-12-22 10:14:43 51°18.7 2°34.617 17.8638 0.065193 0.382122 -2.871232
2006-12-22 10:15:43 51°18.867 2°34.823 17.893 0.065193 0.382113 -2.871232
2006-12-22 10:16:43 51°19.033 2°35.03 17.8868 0.06509 0.381481 -2.871232
2006-12-22 10:17:43 51°19.2 2°35.238 17.9344 0.065193 0.382097 -2.871232
2006-12-22 10:18:43 51°19.368 2°35.445 17.9649 0.06509 0.381465 -2.871232
2006-12-22 10:19:43 51°19.533 2°35.654 17.9709 0.065193 0.382081 -2.871232
2006-12-22 10:20:43 51°19.701 2°35.859 17.9797 0.065193 0.382072 -2.871232
2006-12-22 10:21:43 51°19.868 2°36.066 18.0214 0.06509 0.38144 -2.871232
2006-12-22 10:22:43 51°20.033 2°36.276 18.3152 0.065193 0.382048 -2.871232
2006-12-22 10:23:43 51°20.198 2°36.485 18.3418 0.065193 0.38204 -2.871232
2006-12-22 10:24:43 51°20.364 2°36.696 18.363 0.065193 0.382031 -2.871232
2006-12-22 10:25:43 51°20.529 2°36.907 18.4264 0.065193 0.382023 -2.871232
2006-12-22 10:26:43 51°20.694 2°37.117 18.4543 0.065193 0.382015 -2.871232
2006-12-22 10:27:43 51°20.863 2°37.318 18.5 0.065193 0.382023 -2.871232
2006-12-22 10:28:43 51°21.067 2°37.417 18.5185 0.065193 0.38199 -2.871232
2006-12-22 10:29:43 51°21.274 2°37.504 18.4925 0.065193 0.381982 -2.871232
2006-12-22 10:30:43 51°21.483 2°37.575 18.531 0.065193 0.381982 -2.871232
2006-12-22 10:31:43 51°21.699 2°37.604 18.5491 0.065193 0.381974 -2.871232
2006-12-22 10:32:43 51°21.916 2°37.637 18.5633 0.065193 0.381958 -2.871232
2006-12-22 10:33:43 51°22.133 2°37.67 18.5805 0.065193 0.381958 -2.871232
2006-12-22 10:34:43 51°22.349 2°37.702 18.5899 0.065193 0.381941 -2.871232
2006-12-22 10:35:43 51°22.566 2°37.737 18.6024 0.065193 0.381941 -2.871232
2006-12-22 10:36:43 51°22.783 2°37.772 18.6044 0.065193 0.381933 -2.871232
2006-12-22 10:37:43 51°23.001 2°37.809 18.621 0.065193 0.381933 -2.871232
2006-12-22 10:38:43 51°23.219 2°37.845 18.6356 0.065193 0.381925 -2.871232
2006-12-22 10:39:43 51°23.433 2°37.906 18.6415 0.065193 0.381908 -2.871232
2006-12-22 10:40:43 51°23.64 2°38.005 18.6681 0.065193 0.381908 -2.871232
2006-12-22 10:41:43 51°23.846 2°38.109 18.6717 0.065193 0.3819 -2.871232
2006-12-22 10:42:43 51°24.044 2°38.238 18.5144 0.065193 0.381884 -2.871232
2006-12-22 10:43:43 51°24.194 2°38.475 18.5659 0.065193 0.381876 -2.871232
2006-12-22 10:44:43 51°24.334 2°38.732 18.6978 0.065193 0.381876 -2.871232
2006-12-22 10:45:43 51°24.461 2°39.006 18.6798 0.065193 0.381867 -2.871232
2006-12-22 10:46:43 51°24.569 2°39.306 18.7153 0.065193 0.381859 -2.871232
2006-12-22 10:47:43 51°24.68 2°39.602 18.6764 0.065193 0.381851 -2.871232
2006-12-22 10:48:43 51°24.792 2°39.899 18.7466 0.065193 0.381843 -2.871232
2006-12-22 10:49:43 51°24.906 2°40.195 18.7671 0.065193 0.381827 -2.871232
2006-12-22 10:50:43 51°25.011 2°40.497 18.5351 0.065193 0.381818 -2.871232
2006-12-22 10:51:43 51°25.047 2°40.842 18.7617 0.065193 0.38181 -2.871232
2006-12-22 10:52:43 51°25.064 2°41.195 18.7971 0.065193 0.381818 -2.871232
2006-12-22 10:53:43 51°25.063 2°41.551 18.8011 0.065193 0.381802 -2.871232
2006-12-22 10:54:43 51°25.059 2°41.908 18.8376 0.065193 0.381786 -2.871232
2006-12-22 10:55:43 51°25.057 2°42.264 18.8307 0.065193 0.381777 -2.871232
2006-12-22 10:56:43 51°25.052 2°42.619 18.8585 0.065193 0.381777 -2.871232
2006-12-22 10:57:43 51°25.048 2°42.974 18.8721 0.065193 0.381761 -2.871232
2006-12-22 10:58:43 51°25.044 2°43.329 18.8896 0.065193 0.381753 -2.871232
2006-12-22 10:59:43 51°25.02 2°43.684 18.8224 0.065193 0.381753 -2.871232
2006-12-22 11:00:43 51°24.96 2°44.033 18.8957 0.065193 0.381737 -2.871232
2006-12-22 11:01:43 51°24.884 2°44.376 18.923 0.065193 0.381737 -2.871232
2006-12-22 11:02:43 51°24.806 2°44.72 18.6235 0.065193 0.381728 -2.871232
2006-12-22 11:03:43 51°24.674 2°45.025 18.9271 0.065193 0.381728 -2.871232
2006-12-22 11:04:43 51°24.537 2°45.326 18.9378 0.065193 0.38172 -2.871232
2006-12-22 11:05:43 51°24.403 2°45.631 18.9961 0.065193 0.381696 -2.871232
2006-12-22 11:06:43 51°24.269 2°45.937 19.0068 0.065193 0.381687 -2.871232
2006-12-22 11:07:43 51°24.12 2°46.222 19.0021 0.065193 0.381687 -2.871232
2006-12-22 11:08:43 51°23.93 2°46.435 19.0197 0.065193 0.381679 -2.871232
2006-12-22 11:09:43 51°23.724 2°46.618 19.0297 0.065193 0.381679 -2.871232
2006-12-22 11:10:43 51°23.518 2°46.803 19.0772 0.065193 0.381671 -2.871232
2006-12-22 11:11:43 51°23.311 2°46.989 19.0722 0.065193 0.381663 -2.871232
2006-12-22 11:12:43 51°23.089 2°47.126 19.0857 0.065193 0.381655 -2.871232
2006-12-22 11:13:43 51°22.856 2°47.217 19.1005 0.065296 0.38227 -2.871232
2006-12-22 11:14:43 51°22.62 2°47.279 19.131 0.065296 0.382261 -2.871232
2006-12-22 11:15:43 51°22.38 2°47.253 18.8501 0.065296 0.382253 -2.871232
2006-12-22 11:16:43 51°22.256 2°46.948 19.0901 0.065296 0.382253 -2.871232
2006-12-22 11:17:43 51°22.157 2°46.604 19.1336 0.065296 0.382278 -2.871232
2006-12-22 11:18:43 51°22.03 2°46.284 19.1534 0.065296 0.382278 -2.871232
2006-12-22 11:19:43 51°21.835 2°46.07 19.1967 0.065296 0.382261 -2.871232
2006-12-22 11:20:43 51°21.602 2°46.092 19.2675 0.065296 0.382253 -2.871232
2006-12-22 11:21:43 51°21.381 2°46.231 19.2647 0.065296 0.382229 -2.871232
2006-12-22 11:22:43 51°21.16 2°46.377 19.2845 0.065296 0.382237 -2.871232
2006-12-22 11:23:43 51°20.944 2°46.539 19.0519 0.065296 0.382237 -2.871232
2006-12-22 11:24:43 51°20.724 2°46.679 19.2361 0.065296 0.38222 -2.871232
2006-12-22 11:25:43 51°20.499 2°46.776 19.2698 0.065296 0.382212 -2.871232
2006-12-22 11:26:43 51°20.267 2°46.811 19.1647 0.065296 0.382212 -2.871232
2006-12-22 11:27:43 51°20.036 2°46.734 19.2255 0.065296 0.382212 -2.871232
2006-12-22 11:28:43 51°19.807 2°46.627 19.3112 0.065296 0.382179 -2.871232
2006-12-22 11:29:43 51°19.578 2°46.527 19.2924 0.065296 0.382188 -2.871232
2006-12-22 11:30:43 51°19.35 2°46.415 19.1602 0.065296 0.382171 -2.871232
2006-12-22 11:31:43 51°19.137 2°46.24 19.3017 0.065296 0.382171 -2.871232
2006-12-22 11:32:43 51°18.931 2°46.054 19.3316 0.065296 0.382171 -2.871232
2006-12-22 11:33:43 51°18.724 2°45.875 19.3063 0.065296 0.382163 -2.871232
2006-12-22 11:34:43 51°18.517 2°45.697 19.2924 0.065296 0.382163 -2.871232
2006-12-22 11:35:43 51°18.311 2°45.518 19.2993 0.065296 0.382163 -2.871232
2006-12-22 11:36:43 51°18.105 2°45.343 19.2972 0.065296 0.382147 -2.871232
2006-12-22 11:37:43 51°17.899 2°45.174 19.3654 0.065296 0.382147 -2.871232
2006-12-22 11:38:43 51°17.694 2°45.006 19.2955 0.065296 0.382155 -2.871232
2006-12-22 11:39:43 51°17.489 2°44.829 19.3739 0.065296 0.382139 -2.871232
2006-12-22 11:40:43 51°17.283 2°44.659 19.3432 0.065296 0.382139 -2.871232
2006-12-22 11:41:43 51°17.076 2°44.49 19.4161 0.065296 0.38213 -2.871232
2006-12-22 11:42:43 51°16.87 2°44.319 19.3228 0.065296 0.38213 -2.871232
2006-12-22 11:43:43 51°16.663 2°44.149 19.4417 0.065296 0.382122 -2.871232
2006-12-22 11:44:43 51°16.441 2°44.053 19.4413 0.065296 0.382139 -2.871232
2006-12-22 11:45:43 51°16.22 2°44.157 19.4336 0.065296 0.382147 -2.871232
2006-12-22 11:46:43 51°16.079 2°44.444 19.528 0.065296 0.38213 -2.871232
2006-12-22 11:47:43 51°16.068 2°44.823 19.281 0.065296 0.382081 -2.871232
2006-12-22 11:48:43 51°16.057 2°45.207 19.3387 0.065296 0.382089 -2.871232
2006-12-22 11:49:43 51°16.039 2°45.593 19.3414 0.065296 0.382098 -2.871232
2006-12-22 11:50:43 51°16.017 2°45.981 19.3101 0.065296 0.382089 -2.871232
2006-12-22 11:51:43 51°15.989 2°46.368 19.3171 0.065296 0.382081 -2.871232
2006-12-22 11:52:43 51°15.96 2°46.756 19.347 0.065296 0.382073 -2.871232
2006-12-22 11:53:43 51°15.93 2°47.144 19.2865 0.065296 0.382073 -2.871232
2006-12-22 11:54:43 51°15.898 2°47.532 19.3312 0.065296 0.382057 -2.871232
2006-12-22 11:55:43 51°15.866 2°47.92 19.2653 0.065296 0.382057 -2.871232
2006-12-22 11:56:43 51°15.834 2°48.307 19.3231 0.065399 0.382671 -2.871232
2006-12-22 11:57:43 51°15.8 2°48.695 19.2701 0.065296 0.38204 -2.871232
2006-12-22 11:58:43 51°15.764 2°49.082 19.3445 0.065296 0.382032 -2.871232
2006-12-22 11:59:43 51°15.728 2°49.469 19.3484 0.065296 0.382032 -2.871232
2006-12-22 12:00:43 51°15.688 2°49.855 19.3592 0.065399 0.382647 -2.871232
2006-12-22 12:01:43 51°15.643 2°50.241 19.3127 0.065296 0.382024 -2.871232
2006-12-22 12:02:43 51°15.602 2°50.622 19.3313 0.065399 0.382638 -2.871232
2006-12-22 12:03:43 51°15.555 2°50.999 19.356 0.065399 0.38263 -2.871232
2006-12-22 12:04:43 51°15.496 2°51.371 19.3826 0.065399 0.382622 -2.871232
2006-12-22 12:05:43 51°15.419 2°51.731 19.4087 0.065399 0.382606 -2.871232
2006-12-22 12:06:43 51°15.309 2°52.065 19.4389 0.065399 0.382606 -2.871232
2006-12-22 12:07:43 51°15.193 2°52.397 19.4855 0.065399 0.382606 -2.871232
2006-12-22 12:08:43 51°15.085 2°52.733 19.4162 0.065399 0.382597 -2.871232
2006-12-22 12:09:43 51°15.003 2°53.003 19.518 0.065399 0.382589 -2.871232
2006-12-22 12:10:43 51°14.912 2°53.301 19.4471 0.065399 0.382581 -2.871232
2006-12-22 12:11:43 51°14.818 2°53.6 19.4738 0.065399 0.382581 -2.871232
2006-12-22 12:12:43 51°14.729 2°53.904 19.4911 0.065399 0.382581 -2.871232
2006-12-22 12:13:43 51°14.638 2°54.207 19.5247 0.065399 0.382573 -2.871232
2006-12-22 12:14:43 51°14.551 2°54.516 19.5099 0.065399 0.382573 -2.871232
2006-12-22 12:15:43 51°14.465 2°54.826 19.4635 0.065399 0.382565 -2.871232
2006-12-22 12:16:43 51°14.356 2°55.115 19.3993 0.065296 0.381926 -2.871232
2006-12-22 12:17:44 51°14.239 2°55.302 19.6044 0.065296 0.381926 -2.871232
2006-12-22 12:18:43 51°14.116 2°55.423 19.632 0.065399 0.38254 -2.871232
2006-12-22 12:19:44 51°13.999 2°55.509 19.6532 0.065399 0.382548 -2.871232
2006-12-22 12:20:43 51°13.895 2°55.584 19.6701 0.065296 0.381918 -2.871232
2006-12-22 12:21:43 51°13.796 2°55.664 19.693 0.065399 0.38254 -2.871232
2006-12-22 12:22:44 51°13.716 2°55.782 19.7062 0.065399 0.38254 -2.871232
2006-12-22 12:23:44 51°13.658 2°55.907 19.7234 0.065399 0.382532 -2.871232
2006-12-22 12:24:44 51°13.62 2°56.012 19.7378 0.065399 0.382524 -2.871232
2006-12-22 12:25:43 51°13.602 2°56.083 19.7546 0.065399 0.382532 -2.871232
2006-12-22 12:26:43 51°13.6 2°56.09 19.7662 0.065399 0.382516 -2.871232
2006-12-22 12:27:43 51°13.597 2°56.095 19.7772 0.065399 0.382516 -2.871232
2006-12-22 12:28:43 51°13.598 2°56.094 19.7886 0.065399 0.382507 -2.871232